createdAt,value
2018-09-12T00:02:06.184Z,5.20
2018-09-12T00:04:34.487Z,5.13
2018-09-12T00:07:02.917Z,4.70
2018-09-12T00:09:31.249Z,5.27
2018-09-12T00:11:59.709Z,4.97
2018-09-12T00:14:27.980Z,5.53
2018-09-12T00:16:56.260Z,4.80
2018-09-12T00:19:25.201Z,4.90
2018-09-12T00:21:53.615Z,4.53
2018-09-12T00:24:21.901Z,4.93
2018-09-12T00:26:50.171Z,4.90
2018-09-12T00:29:18.475Z,4.70
2018-09-12T00:31:46.748Z,4.40
2018-09-12T00:34:15.168Z,4.83
2018-09-12T00:36:43.504Z,4.73
2018-09-12T00:39:12.721Z,5.03
2018-09-12T00:41:41.012Z,4.27
2018-09-12T00:44:09.708Z,4.63
2018-09-12T00:46:38.181Z,4.30
2018-09-12T00:49:06.808Z,4.17
2018-09-12T00:51:35.192Z,4.97
2018-09-12T00:54:03.640Z,4.10
2018-09-12T00:56:31.920Z,4.27
2018-09-12T00:59:00.230Z,4.17
2018-09-12T01:01:28.589Z,4.30
2018-09-12T01:03:56.901Z,4.37
2018-09-12T01:06:25.177Z,4.10
2018-09-12T01:08:53.548Z,4.50
2018-09-12T01:11:23.949Z,5.63
2018-09-12T01:13:53.620Z,4.13
2018-09-12T01:16:21.941Z,4.53
2018-09-12T01:18:50.264Z,4.30
2018-09-12T01:21:18.581Z,4.97
2018-09-12T01:23:46.906Z,4.53
2018-09-12T01:26:15.180Z,5.17
2018-09-12T01:28:43.502Z,4.77
2018-09-12T01:31:11.839Z,4.13
2018-09-12T01:33:40.171Z,4.73
2018-09-12T01:36:08.445Z,3.83
2018-09-12T01:38:36.763Z,4.73
2018-09-12T01:41:05.046Z,4.50
2018-09-12T01:43:33.395Z,4.63
2018-09-12T01:46:01.758Z,4.40
2018-09-12T01:48:30.083Z,5.37
2018-09-12T01:50:58.467Z,4.70
2018-09-12T01:53:26.752Z,4.70
2018-09-12T01:55:55.085Z,4.00
2018-09-12T01:58:23.435Z,4.50
2018-09-12T02:00:51.717Z,4.87
2018-09-12T02:03:20.088Z,4.20
2018-09-12T02:05:48.491Z,4.57
2018-09-12T02:08:16.820Z,4.07
2018-09-12T02:10:45.234Z,4.43
2018-09-12T02:13:13.551Z,4.20
2018-09-12T02:15:41.847Z,4.77
2018-09-12T02:18:10.181Z,5.20
2018-09-12T02:20:38.537Z,4.60
2018-09-12T02:23:06.912Z,4.30
2018-09-12T02:25:35.597Z,4.10
2018-09-12T02:28:03.951Z,4.53
2018-09-12T02:30:32.292Z,4.73
2018-09-12T02:33:01.869Z,4.50
2018-09-12T02:35:30.307Z,5.13
2018-09-12T02:37:58.599Z,4.53
2018-09-12T02:40:26.920Z,4.17
2018-09-12T02:42:55.328Z,4.53
2018-09-12T02:45:23.653Z,4.50
2018-09-12T02:47:51.939Z,4.67
2018-09-12T02:50:20.308Z,4.60
2018-09-12T02:52:48.555Z,4.90
2018-09-12T02:55:16.915Z,4.97
2018-09-12T02:57:45.211Z,4.23
2018-09-12T03:00:13.571Z,4.80
2018-09-12T03:02:41.872Z,4.30
2018-09-12T03:05:10.211Z,3.93
2018-09-12T03:07:38.501Z,4.43
2018-09-12T03:10:07.525Z,4.47
2018-09-12T03:12:35.875Z,4.30
2018-09-12T03:15:04.288Z,4.63
2018-09-12T03:17:32.568Z,4.57
2018-09-12T03:20:00.937Z,4.23
2018-09-12T03:22:29.434Z,4.60
2018-09-12T03:24:57.750Z,4.03
2018-09-12T03:27:26.022Z,5.10
2018-09-12T03:29:54.409Z,5.17
2018-09-12T03:32:22.779Z,5.13
2018-09-12T03:34:51.162Z,5.87
2018-09-12T03:37:19.438Z,5.50
2018-09-12T03:39:47.738Z,4.83
2018-09-12T03:42:16.171Z,5.00
2018-09-12T03:44:44.560Z,4.60
2018-09-12T03:47:12.888Z,4.70
2018-09-12T03:49:41.219Z,4.60
2018-09-12T03:52:09.639Z,5.40
2018-09-12T03:54:37.953Z,5.00
2018-09-12T03:57:06.320Z,5.30
2018-09-12T03:59:34.729Z,5.33
2018-09-12T04:02:03.057Z,5.20
2018-09-12T04:04:31.344Z,5.40
2018-09-12T04:06:59.651Z,5.03
2018-09-12T04:09:27.980Z,5.37
2018-09-12T04:11:56.312Z,5.23
2018-09-12T04:14:24.623Z,5.37
2018-09-12T04:16:53.003Z,4.97
2018-09-12T04:19:21.436Z,5.80
2018-09-12T04:21:49.780Z,5.27
2018-09-12T04:24:18.157Z,5.57
2018-09-12T04:26:46.409Z,4.97
2018-09-12T04:29:14.712Z,4.97
2018-09-12T04:31:43.088Z,5.50
2018-09-12T04:34:11.556Z,5.77
2018-09-12T04:36:39.959Z,6.20
2018-09-12T04:39:10.098Z,7.10
2018-09-12T04:41:38.460Z,5.13
2018-09-12T04:44:06.824Z,5.40
2018-09-12T04:46:35.576Z,5.17
2018-09-12T04:49:03.976Z,5.33
2018-09-12T04:51:32.287Z,5.37
2018-09-12T04:54:00.806Z,5.07
2018-09-12T04:56:29.136Z,6.03
2018-09-12T04:58:57.417Z,5.33
2018-09-12T05:01:25.820Z,5.37
2018-09-12T05:03:54.164Z,6.93
2018-09-12T05:06:22.477Z,5.90
2018-09-12T05:08:50.808Z,6.30
2018-09-12T05:11:19.174Z,6.07
2018-09-12T05:13:47.466Z,6.20
2018-09-12T05:16:15.839Z,7.07
2018-09-12T05:18:44.179Z,6.20
2018-09-12T05:21:12.690Z,6.40
2018-09-12T05:23:41.353Z,6.67
2018-09-12T05:26:09.881Z,6.80
2018-09-12T05:28:38.511Z,7.00
2018-09-12T05:31:06.919Z,7.00
2018-09-12T05:33:35.329Z,6.37
2018-09-12T05:36:03.639Z,7.07
2018-09-12T05:38:32.079Z,6.43
2018-09-12T05:41:00.583Z,6.07
2018-09-12T05:43:28.930Z,6.30
2018-09-12T05:45:57.431Z,6.93
2018-09-12T05:48:25.788Z,5.90
2018-09-12T05:50:54.133Z,6.70
2018-09-12T05:53:22.620Z,7.00
2018-09-12T05:55:50.931Z,7.07
2018-09-12T05:58:19.292Z,7.13
2018-09-12T06:00:47.665Z,6.73
2018-09-12T06:03:15.978Z,7.67
2018-09-12T06:05:44.361Z,8.70
2018-09-12T06:08:12.711Z,6.50
2018-09-12T06:10:41.136Z,7.30
2018-09-12T06:13:09.586Z,6.83
2018-09-12T06:15:38.073Z,7.60
2018-09-12T06:18:06.956Z,6.90
2018-09-12T06:20:35.275Z,7.40
2018-09-12T06:23:03.638Z,7.07
2018-09-12T06:25:31.964Z,6.63
2018-09-12T06:28:00.352Z,6.90
2018-09-12T06:30:28.698Z,6.70
2018-09-12T06:32:57.030Z,7.00
2018-09-12T06:35:25.354Z,6.53
2018-09-12T06:37:53.784Z,6.30
2018-09-12T06:40:22.223Z,7.00
2018-09-12T06:42:50.668Z,6.27
2018-09-12T06:45:19.047Z,6.30
2018-09-12T06:47:47.385Z,6.57
2018-09-12T06:50:15.717Z,6.60
2018-09-12T06:52:44.064Z,6.83
2018-09-12T06:55:12.564Z,6.43
2018-09-12T06:57:40.919Z,6.53
2018-09-12T07:00:09.935Z,6.80
2018-09-12T07:02:38.907Z,5.93
2018-09-12T07:05:07.317Z,6.30
2018-09-12T07:07:35.741Z,6.37
2018-09-12T07:10:04.059Z,5.80
2018-09-12T07:12:32.355Z,6.50
2018-09-12T07:15:00.675Z,6.90
2018-09-12T07:17:29.120Z,6.20
2018-09-12T07:19:57.486Z,6.07
2018-09-12T07:22:25.786Z,5.37
2018-09-12T07:24:54.063Z,5.70
2018-09-12T07:27:22.413Z,5.97
2018-09-12T07:29:50.691Z,5.30
2018-09-12T07:32:18.995Z,6.40
2018-09-12T07:34:47.295Z,5.77
2018-09-12T07:37:15.596Z,6.30
2018-09-12T07:39:43.915Z,5.37
2018-09-12T07:42:12.215Z,5.50
2018-09-12T07:44:40.775Z,5.80
2018-09-12T07:47:09.104Z,5.53
2018-09-12T07:49:37.537Z,6.07
2018-09-12T07:52:05.868Z,5.67
2018-09-12T07:54:34.173Z,5.53
2018-09-12T07:57:02.454Z,6.23
2018-09-12T07:59:30.831Z,5.40
2018-09-12T08:01:59.100Z,5.60
2018-09-12T08:04:27.467Z,4.87
2018-09-12T08:06:55.751Z,4.50
2018-09-12T08:09:24.076Z,4.90
2018-09-12T08:11:52.415Z,5.13
2018-09-12T08:14:20.756Z,5.70
2018-09-12T08:16:49.077Z,4.80
2018-09-12T08:19:17.473Z,4.23
2018-09-12T08:21:45.760Z,5.60
2018-09-12T08:24:14.121Z,4.80
2018-09-12T08:26:42.478Z,4.83
2018-09-12T08:29:10.812Z,4.20
2018-09-12T08:31:39.148Z,4.20
2018-09-12T08:34:07.721Z,4.97
2018-09-12T08:36:36.158Z,4.60
2018-09-12T08:39:06.183Z,4.47
2018-09-12T08:41:34.493Z,4.40
2018-09-12T08:44:03.122Z,4.83
2018-09-12T08:46:31.667Z,4.53
2018-09-12T08:48:59.975Z,4.33
2018-09-12T08:51:28.364Z,5.03
2018-09-12T08:53:56.718Z,4.57
2018-09-12T08:56:25.083Z,5.00
2018-09-12T08:58:53.399Z,4.63
2018-09-12T09:01:21.853Z,5.20
2018-09-12T09:03:50.177Z,4.47
2018-09-12T09:06:18.510Z,5.40
2018-09-12T09:08:46.823Z,5.10
2018-09-12T09:11:15.172Z,5.27
2018-09-12T09:13:43.544Z,4.53
2018-09-12T09:16:11.905Z,5.00
2018-09-12T09:18:40.219Z,4.60
2018-09-12T09:21:08.655Z,4.87
2018-09-12T09:23:37.067Z,4.80
2018-09-12T09:26:05.569Z,4.80
2018-09-12T09:28:34.084Z,4.60
2018-09-12T09:31:02.428Z,4.60
2018-09-12T09:33:30.751Z,4.77
2018-09-12T09:35:59.024Z,4.70
2018-09-12T09:38:27.448Z,5.17
2018-09-12T09:40:55.744Z,5.20
2018-09-12T09:43:24.065Z,4.67
2018-09-12T09:45:52.359Z,5.17
2018-09-12T09:48:20.713Z,4.93
2018-09-12T09:50:49.156Z,4.93
2018-09-12T09:53:17.575Z,4.47
2018-09-12T09:55:45.919Z,3.80
2018-09-12T09:58:14.203Z,4.73
2018-09-12T10:00:47.907Z,5.13
2018-09-12T10:03:21.636Z,4.33
2018-09-12T10:05:55.401Z,4.57
2018-09-12T10:08:29.533Z,4.85
2018-09-12T10:10:58.400Z,4.17
2018-09-12T10:13:26.667Z,3.90
2018-09-12T10:15:55.000Z,4.47
2018-09-12T10:18:23.279Z,4.58
2018-09-12T10:20:51.620Z,4.45
2018-09-12T10:23:21.461Z,4.60
2018-09-12T10:25:49.770Z,4.37
2018-09-12T10:28:18.132Z,5.45
2018-09-12T10:30:46.444Z,4.80
2018-09-12T10:33:14.926Z,4.12
2018-09-12T10:35:43.299Z,4.33
2018-09-12T10:38:11.672Z,4.28
2018-09-12T10:40:40.221Z,3.87
2018-09-12T10:43:08.620Z,4.60
2018-09-12T10:45:37.031Z,4.42
2018-09-12T10:48:05.568Z,4.30
2018-09-12T10:50:33.875Z,5.00
2018-09-12T10:53:02.174Z,4.42
2018-09-12T10:55:30.564Z,4.30
2018-09-12T10:57:58.894Z,4.42
2018-09-12T11:00:27.216Z,4.20
2018-09-12T11:02:55.573Z,4.75
2018-09-12T11:05:23.939Z,4.47
2018-09-12T11:07:52.243Z,4.70
2018-09-12T11:10:20.616Z,4.05
2018-09-12T11:12:49.083Z,4.15
2018-09-12T11:15:17.470Z,3.85
2018-09-12T11:17:45.766Z,4.55
2018-09-12T11:20:14.102Z,4.25
2018-09-12T11:22:42.443Z,4.20
2018-09-12T11:25:10.832Z,4.15
2018-09-12T11:27:39.171Z,4.30
2018-09-12T11:30:07.659Z,4.00
2018-09-12T11:32:36.017Z,4.97
2018-09-12T11:35:04.368Z,4.05
2018-09-12T11:37:32.672Z,4.40
2018-09-12T11:40:01.031Z,4.05
2018-09-12T11:42:29.489Z,4.30
2018-09-12T11:44:57.999Z,4.00
2018-09-12T11:47:26.284Z,3.60
2018-09-12T11:49:58.161Z,4.00
2018-09-12T11:52:26.471Z,3.65
2018-09-12T11:54:54.832Z,3.87
2018-09-12T11:57:23.131Z,3.95
2018-09-12T11:59:51.543Z,3.67
2018-09-12T12:02:20.348Z,3.77
2018-09-12T12:04:48.628Z,3.80
2018-09-12T12:07:16.935Z,3.20
2018-09-12T12:09:45.339Z,3.75
2018-09-12T12:12:13.700Z,3.60
2018-09-12T12:14:42.135Z,3.80
2018-09-12T12:17:10.495Z,3.40
2018-09-12T12:19:38.904Z,3.10
2018-09-12T12:22:07.205Z,3.45
2018-09-12T12:24:35.552Z,3.27
2018-09-12T12:27:03.851Z,3.62
2018-09-12T12:29:32.117Z,3.85
2018-09-12T12:32:00.528Z,3.65
2018-09-12T12:34:28.818Z,3.83
2018-09-12T12:36:57.148Z,3.40
2018-09-12T12:39:25.500Z,3.77
2018-09-12T12:41:53.808Z,3.70
2018-09-12T12:44:22.079Z,3.67
2018-09-12T12:46:50.406Z,3.00
2018-09-12T12:49:18.740Z,2.77
2018-09-12T12:51:47.031Z,3.37
2018-09-12T12:54:15.284Z,3.22
2018-09-12T12:56:43.838Z,2.98
2018-09-12T12:59:12.294Z,3.12
2018-09-12T13:01:40.825Z,2.98
2018-09-12T13:04:09.144Z,2.90
2018-09-12T13:06:37.675Z,2.90
2018-09-12T13:09:08.059Z,2.95
2018-09-12T13:11:36.691Z,2.62
2018-09-12T13:14:05.067Z,2.40
2018-09-12T13:16:33.563Z,2.47
2018-09-12T13:19:01.836Z,2.65
2018-09-12T13:21:30.240Z,2.40
2018-09-12T13:23:58.447Z,2.60
2018-09-12T13:26:26.776Z,2.45
2018-09-12T13:28:55.301Z,2.87
2018-09-12T13:31:23.592Z,2.37
2018-09-12T13:33:51.876Z,2.72
2018-09-12T13:36:20.305Z,2.50
2018-09-12T13:38:48.700Z,2.75
2018-09-12T13:41:17.048Z,2.52
2018-09-12T13:43:45.354Z,2.62
2018-09-12T13:46:13.698Z,2.40
2018-09-12T13:48:42.058Z,2.50
2018-09-12T13:51:10.505Z,2.67
2018-09-12T13:53:39.408Z,2.55
2018-09-12T13:56:07.723Z,2.60
2018-09-12T13:58:36.009Z,3.00
2018-09-12T14:01:04.388Z,3.10
2018-09-12T14:03:32.708Z,2.85
2018-09-12T14:06:01.023Z,2.92
2018-09-12T14:08:29.293Z,2.42
2018-09-12T14:10:57.633Z,2.60
2018-09-12T14:13:26.055Z,2.60
2018-09-12T14:15:54.376Z,2.70
2018-09-12T14:18:22.736Z,2.67
2018-09-12T14:20:51.414Z,2.52
2018-09-12T14:23:19.696Z,2.65
2018-09-12T14:25:48.008Z,2.95
2018-09-12T14:28:16.303Z,2.67
2018-09-12T14:30:44.636Z,2.30
2018-09-12T14:33:12.973Z,2.67
2018-09-12T14:35:41.332Z,2.83
2018-09-12T14:38:09.863Z,2.70
2018-09-12T14:40:38.278Z,2.45
2018-09-12T14:43:06.702Z,2.55
2018-09-12T14:45:35.195Z,2.60
2018-09-12T14:48:03.524Z,2.83
2018-09-12T14:50:31.804Z,2.72
2018-09-12T14:53:00.477Z,2.70
2018-09-12T14:55:28.770Z,2.55
2018-09-12T14:57:57.162Z,2.52
2018-09-12T15:00:26.418Z,2.90
2018-09-12T15:02:55.571Z,2.60
2018-09-12T15:05:24.165Z,3.12
2018-09-12T15:07:52.511Z,2.67
2018-09-12T15:10:20.948Z,2.45
2018-09-12T15:12:49.271Z,2.70
2018-09-12T15:15:17.607Z,2.70
2018-09-12T15:17:46.662Z,2.90
2018-09-12T15:20:16.164Z,3.08
2018-09-12T15:22:44.866Z,3.10
2018-09-12T15:25:14.192Z,2.67
2018-09-12T15:27:42.690Z,3.33
2018-09-12T15:30:11.553Z,3.23
2018-09-12T15:32:40.130Z,3.27
2018-09-12T15:35:08.808Z,2.97
2018-09-12T15:37:37.331Z,2.90
2018-09-12T15:40:05.683Z,2.80
2018-09-12T15:42:34.010Z,3.00
2018-09-12T15:45:02.305Z,3.40
2018-09-12T15:47:30.660Z,2.93
2018-09-12T15:49:58.975Z,3.20
2018-09-12T15:52:27.290Z,2.97
2018-09-12T15:54:55.584Z,3.00
2018-09-12T15:57:24.096Z,3.17
2018-09-12T15:59:52.402Z,3.23
2018-09-12T16:02:20.718Z,2.67
2018-09-12T16:04:49.074Z,2.90
2018-09-12T16:07:17.391Z,2.90
2018-09-12T16:09:45.701Z,2.90
2018-09-12T16:12:14.026Z,3.03
2018-09-12T16:14:42.409Z,2.80
2018-09-12T16:17:10.765Z,3.00
2018-09-12T16:19:39.099Z,3.10
2018-09-12T16:22:07.728Z,3.20
2018-09-12T16:24:36.044Z,2.83
2018-09-12T16:27:04.407Z,2.53
2018-09-12T16:29:32.757Z,2.70
2018-09-12T16:32:01.052Z,2.70
2018-09-12T16:34:29.375Z,2.60
2018-09-12T16:36:57.953Z,2.80
2018-09-12T16:39:26.945Z,3.00
2018-09-12T16:41:55.329Z,2.47
2018-09-12T16:44:23.801Z,2.40
2018-09-12T16:46:52.331Z,2.47
2018-09-12T16:49:20.831Z,2.50
2018-09-12T16:51:49.275Z,2.30
2018-09-12T16:54:17.604Z,2.67
2018-09-12T16:56:45.974Z,2.30
2018-09-12T16:59:14.233Z,2.40
2018-09-12T17:01:42.721Z,2.33
2018-09-12T17:04:11.443Z,2.73
2018-09-12T17:06:39.751Z,3.17
2018-09-12T17:09:09.507Z,14.77
2018-09-12T17:11:38.287Z,14.50
2018-09-12T17:14:07.169Z,11.07
2018-09-12T17:16:35.440Z,8.17
2018-09-12T17:19:04.326Z,6.27
2018-09-12T17:21:32.973Z,7.23
2018-09-12T17:24:01.707Z,8.23
2018-09-12T17:26:30.503Z,8.07
2018-09-12T17:28:59.474Z,5.87
2018-09-12T17:31:28.043Z,5.73
2018-09-12T17:33:56.976Z,8.27
2018-09-12T17:36:26.555Z,6.77
2018-09-12T17:38:54.906Z,6.00
2018-09-12T17:41:23.288Z,6.03
2018-09-12T17:43:51.631Z,5.87
2018-09-12T17:46:20.163Z,5.17
2018-09-12T17:48:48.829Z,5.60
2018-09-12T17:51:17.207Z,6.17
2018-09-12T17:53:46.104Z,5.90
2018-09-12T17:56:14.703Z,5.70
2018-09-12T17:58:43.128Z,5.87
2018-09-12T18:01:12.253Z,5.20
2018-09-12T18:03:40.680Z,5.40
2018-09-12T18:06:09.455Z,4.30
2018-09-12T18:08:37.981Z,4.10
2018-09-12T18:11:06.493Z,4.43
2018-09-12T18:13:34.825Z,4.47
2018-09-12T18:16:03.154Z,4.10
2018-09-12T18:18:31.582Z,4.00
2018-09-12T18:21:00.032Z,6.20
2018-09-12T18:23:28.339Z,6.17
2018-09-12T18:25:56.736Z,7.03
2018-09-12T18:28:25.139Z,8.30
2018-09-12T18:30:53.614Z,8.47
2018-09-12T18:33:22.002Z,8.47
2018-09-12T18:35:50.402Z,8.20
2018-09-12T18:38:18.722Z,7.00
2018-09-12T18:40:47.034Z,6.33
2018-09-12T18:43:15.358Z,6.33
2018-09-12T18:45:43.798Z,5.47
2018-09-12T18:48:12.195Z,6.13
2018-09-12T18:50:40.623Z,5.77
2018-09-12T18:53:08.970Z,6.00
2018-09-12T18:55:37.381Z,5.43
2018-09-12T18:58:05.738Z,6.03
2018-09-12T19:00:34.253Z,5.57
2018-09-12T19:03:02.543Z,4.73
2018-09-12T19:05:31.259Z,4.73
2018-09-12T19:07:59.934Z,4.40
2018-09-12T19:10:28.312Z,5.10
2018-09-12T19:12:56.790Z,4.70
2018-09-12T19:15:25.230Z,4.10
2018-09-12T19:17:53.531Z,4.43
2018-09-12T19:20:21.888Z,4.10
2018-09-12T19:22:50.182Z,4.23
2018-09-12T19:25:18.511Z,4.50
2018-09-12T19:27:46.825Z,4.17
2018-09-12T19:30:15.116Z,4.90
2018-09-12T19:32:43.435Z,4.27
2018-09-12T19:35:11.948Z,4.43
2018-09-12T19:37:41.784Z,5.17
2018-09-12T19:40:10.099Z,5.03
2018-09-12T19:42:38.405Z,5.33
2018-09-12T19:45:06.721Z,4.83
2018-09-12T19:47:35.032Z,5.47
2018-09-12T19:50:03.402Z,4.70
2018-09-12T19:52:31.742Z,4.87
2018-09-12T19:55:00.024Z,4.07
2018-09-12T19:57:28.398Z,4.60
2018-09-12T19:59:56.737Z,3.53
2018-09-12T20:02:32.172Z,3.47
2018-09-12T20:05:01.168Z,3.37
2018-09-12T20:07:30.745Z,4.10
2018-09-12T20:09:59.033Z,3.87
2018-09-12T20:12:27.470Z,4.10
2018-09-12T20:14:56.262Z,3.60
2018-09-12T20:17:24.727Z,3.73
2018-09-12T20:19:53.295Z,4.20
2018-09-12T20:22:21.847Z,4.40
2018-09-12T20:24:50.162Z,4.40
2018-09-12T20:27:18.680Z,4.40
2018-09-12T20:29:47.349Z,4.37
2018-09-12T20:32:16.119Z,4.00
2018-09-12T20:34:44.583Z,3.50
2018-09-12T20:37:13.871Z,4.40
2018-09-12T20:39:42.473Z,5.10
2018-09-12T20:42:10.947Z,6.00
2018-09-12T20:44:39.644Z,5.83
2018-09-12T20:47:07.988Z,5.83
2018-09-12T20:49:36.291Z,6.57
2018-09-12T20:52:04.666Z,6.43
2018-09-12T20:54:32.977Z,5.20
2018-09-12T20:57:01.311Z,6.37
2018-09-12T20:59:29.628Z,4.60
2018-09-12T21:01:57.998Z,4.87
2018-09-12T21:04:26.343Z,5.10
2018-09-12T21:06:54.705Z,4.80
2018-09-12T21:09:23.257Z,4.90
2018-09-12T21:11:51.686Z,4.43
2018-09-12T21:14:20.018Z,5.40
2018-09-12T21:16:48.364Z,4.57
2018-09-12T21:19:16.714Z,4.77
2018-09-12T21:21:45.047Z,5.40
2018-09-12T21:24:13.478Z,5.03
2018-09-12T21:26:41.932Z,5.57
2018-09-12T21:29:10.487Z,5.17
2018-09-12T21:31:38.919Z,5.60
2018-09-12T21:34:07.464Z,6.43
2018-09-12T21:36:35.835Z,6.97
2018-09-12T21:39:06.458Z,5.63
2018-09-12T21:41:34.776Z,6.80
2018-09-12T21:44:03.068Z,6.63
2018-09-12T21:46:31.483Z,6.67
2018-09-12T21:48:59.794Z,7.90
2018-09-12T21:51:28.107Z,6.50
2018-09-12T21:53:56.558Z,6.73
2018-09-12T21:56:24.938Z,6.90
2018-09-12T21:58:53.294Z,6.83
2018-09-12T22:01:23.964Z,7.97
2018-09-12T22:03:53.243Z,8.60
2018-09-12T22:06:22.368Z,8.37
2018-09-12T22:08:50.725Z,7.83
2018-09-12T22:11:19.072Z,7.53
2018-09-12T22:13:47.356Z,9.20
2018-09-12T22:16:15.685Z,9.67
2018-09-12T22:18:44.163Z,8.90
2018-09-12T22:21:12.460Z,8.87
2018-09-12T22:23:40.777Z,8.23
2018-09-12T22:26:09.317Z,9.33
2018-09-12T22:28:37.847Z,9.57
2018-09-12T22:31:06.488Z,9.73
2018-09-12T22:33:34.796Z,9.73
2018-09-12T22:36:03.247Z,11.00
2018-09-12T22:38:31.576Z,10.60
2018-09-12T22:41:00.115Z,10.07
2018-09-12T22:43:28.417Z,9.70
2018-09-12T22:45:56.707Z,9.73
2018-09-12T22:48:25.090Z,9.63
2018-09-12T22:50:53.411Z,9.33
2018-09-12T22:53:21.770Z,9.10
2018-09-12T22:55:50.052Z,8.53
2018-09-12T22:58:18.375Z,9.83
2018-09-12T23:00:46.679Z,9.63
2018-09-12T23:03:15.013Z,9.77
2018-09-12T23:05:43.584Z,9.80
2018-09-12T23:08:12.016Z,9.20
2018-09-12T23:10:40.373Z,9.03
2018-09-12T23:13:08.884Z,9.43
2018-09-12T23:15:37.264Z,8.33
2018-09-12T23:18:05.855Z,9.40
2018-09-12T23:20:34.135Z,9.53
2018-09-12T23:23:02.484Z,8.17
2018-09-12T23:25:30.770Z,8.27
2018-09-12T23:27:59.052Z,8.87
2018-09-12T23:30:27.315Z,8.03
2018-09-12T23:32:55.659Z,8.40
2018-09-12T23:35:23.952Z,8.53
2018-09-12T23:37:52.285Z,8.80
2018-09-12T23:40:20.618Z,8.57
2018-09-12T23:42:48.934Z,7.97
2018-09-12T23:45:17.236Z,8.33
2018-09-12T23:47:45.545Z,8.10
2018-09-12T23:50:13.855Z,7.67
2018-09-12T23:52:42.199Z,7.50
2018-09-12T23:55:10.488Z,8.97
2018-09-12T23:57:38.884Z,8.63
